sensor_id;sensor_type;location;lat;lon;timestamp;pressure;altitude;pressure_sealevel;temperature
28305;BMP280;15569;42.652;23.040;2022-08-02T00:02:11;92976.16;;;26.47
28305;BMP280;15569;42.652;23.040;2022-08-02T00:04:36;92972.03;;;26.44
28305;BMP280;15569;42.652;23.040;2022-08-02T00:07:02;92974.78;;;26.46
28305;BMP280;15569;42.652;23.040;2022-08-02T00:09:27;92970.59;;;26.47
28305;BMP280;15569;42.652;23.040;2022-08-02T00:11:53;92976.06;;;26.53
28305;BMP280;15569;42.652;23.040;2022-08-02T00:14:18;92983.03;;;26.54
28305;BMP280;15569;42.652;23.040;2022-08-02T00:16:44;92972.72;;;26.45
28305;BMP280;15569;42.652;23.040;2022-08-02T00:19:09;92971.25;;;26.50
28305;BMP280;15569;42.652;23.040;2022-08-02T00:21:35;92965.06;;;26.43
28305;BMP280;15569;42.652;23.040;2022-08-02T00:24:00;92969.25;;;26.42
28305;BMP280;15569;42.652;23.040;2022-08-02T00:26:25;92970.59;;;26.45
28305;BMP280;15569;42.652;23.040;2022-08-02T00:28:51;92969.22;;;26.46
28305;BMP280;15569;42.652;23.040;2022-08-02T00:31:16;92974.81;;;26.44
28305;BMP280;15569;42.652;23.040;2022-08-02T00:33:42;92973.34;;;26.49
28305;BMP280;15569;42.652;23.040;2022-08-02T00:36:07;92963.03;;;26.40
28305;BMP280;15569;42.652;23.040;2022-08-02T00:38:32;92965.19;;;26.35
28305;BMP280;15569;42.652;23.040;2022-08-02T00:40:58;92967.97;;;26.35
28305;BMP280;15569;42.652;23.040;2022-08-02T00:43:23;92960.97;;;26.36
28305;BMP280;15569;42.652;23.040;2022-08-02T00:45:49;92964.56;;;26.31
28305;BMP280;15569;42.652;23.040;2022-08-02T00:48:14;92952.69;;;26.30
28305;BMP280;15569;42.652;23.040;2022-08-02T00:50:40;92966.59;;;26.32
28305;BMP280;15569;42.652;23.040;2022-08-02T00:53:06;92957.59;;;26.32
28305;BMP280;15569;42.652;23.040;2022-08-02T00:55:34;92958.97;;;26.31
28305;BMP280;15569;42.652;23.040;2022-08-02T00:57:59;92956.88;;;26.29
28305;BMP280;15569;42.652;23.040;2022-08-02T01:00:25;92948.69;;;26.19
28305;BMP280;15569;42.652;23.040;2022-08-02T01:02:50;92954.84;;;26.28
28305;BMP280;15569;42.652;23.040;2022-08-02T01:05:16;92956.97;;;26.23
28305;BMP280;15569;42.652;23.040;2022-08-02T01:07:42;92961.44;;;26.00
28305;BMP280;15569;42.652;23.040;2022-08-02T01:10:08;92956.78;;;25.82
28305;BMP280;15569;42.652;23.040;2022-08-02T01:12:33;92956.72;;;25.88
28305;BMP280;15569;42.652;23.040;2022-08-02T01:15:02;92964.28;;;25.98
28305;BMP280;15569;42.652;23.040;2022-08-02T01:17:43;92969.81;;;26.02
28305;BMP280;15569;42.652;23.040;2022-08-02T01:25:55;92960.56;;;26.16
28305;BMP280;15569;42.652;23.040;2022-08-02T01:28:37;92948.69;;;26.17
28305;BMP280;15569;42.652;23.040;2022-08-02T01:31:28;92963.31;;;26.20
28305;BMP280;15569;42.652;23.040;2022-08-02T01:34:03;92954.22;;;26.21
28305;BMP280;15569;42.652;23.040;2022-08-02T01:36:35;92954.91;;;26.22
28305;BMP280;15569;42.652;23.040;2022-08-02T01:39:02;92952.88;;;26.18
28305;BMP280;15569;42.652;23.040;2022-08-02T01:41:30;92956.31;;;26.21
28305;BMP280;15569;42.652;23.040;2022-08-02T01:43:58;92951.53;;;26.15
28305;BMP280;15569;42.652;23.040;2022-08-02T01:46:26;92960.50;;;26.20
28305;BMP280;15569;42.652;23.040;2022-08-02T01:48:53;92957.16;;;26.09
28305;BMP280;15569;42.652;23.040;2022-08-02T01:51:20;92954.38;;;26.09
28305;BMP280;15569;42.652;23.040;2022-08-02T01:54:09;92955.81;;;26.06
28305;BMP280;15569;42.652;23.040;2022-08-02T01:56:36;92941.94;;;26.02
28305;BMP280;15569;42.652;23.040;2022-08-02T01:59:03;92959.19;;;26.15
28305;BMP280;15569;42.652;23.040;2022-08-02T02:01:31;92954.31;;;26.13
28305;BMP280;15569;42.652;23.040;2022-08-02T02:03:59;92945.31;;;26.09
28305;BMP280;15569;42.652;23.040;2022-08-02T02:06:25;92946.75;;;26.08
28305;BMP280;15569;42.652;23.040;2022-08-02T02:08:51;92947.47;;;26.06
28305;BMP280;15569;42.652;23.040;2022-08-02T02:11:17;92947.44;;;26.08
28305;BMP280;15569;42.652;23.040;2022-08-02T02:13:44;92950.22;;;26.08
28305;BMP280;15569;42.652;23.040;2022-08-02T02:16:10;92936.38;;;26.00
28305;BMP280;15569;42.652;23.040;2022-08-02T02:18:39;92942.56;;;26.07
28305;BMP280;15569;42.652;23.040;2022-08-02T02:21:06;92939.81;;;26.05
28305;BMP280;15569;42.652;23.040;2022-08-02T02:23:31;92934.97;;;26.01
28305;BMP280;15569;42.652;23.040;2022-08-02T02:25:57;92939.13;;;26.04
28305;BMP280;15569;42.652;23.040;2022-08-02T02:28:28;92953.75;;;26.03
28305;BMP280;15569;42.652;23.040;2022-08-02T02:31:06;92945.41;;;26.03
28305;BMP280;15569;42.652;23.040;2022-08-02T02:33:34;92942.69;;;25.99
28305;BMP280;15569;42.652;23.040;2022-08-02T02:36:01;92953.13;;;25.98
28305;BMP280;15569;42.652;23.040;2022-08-02T02:38:29;92950.38;;;25.96
28305;BMP280;15569;42.652;23.040;2022-08-02T02:40:58;92944.06;;;26.00
28305;BMP280;15569;42.652;23.040;2022-08-02T02:43:27;92950.41;;;25.92
28305;BMP280;15569;42.652;23.040;2022-08-02T02:45:54;92951.84;;;25.89
28305;BMP280;15569;42.652;23.040;2022-08-02T02:48:20;92939.97;;;25.93
28305;BMP280;15569;42.652;23.040;2022-08-02T02:50:46;92935.88;;;25.83
28305;BMP280;15569;42.652;23.040;2022-08-02T02:53:12;92930.34;;;25.81
28305;BMP280;15569;42.652;23.040;2022-08-02T02:55:39;92931.69;;;25.84
28305;BMP280;15569;42.652;23.040;2022-08-02T02:58:06;92942.81;;;25.84
28305;BMP280;15569;42.652;23.040;2022-08-02T03:00:32;92938.03;;;25.81
28305;BMP280;15569;42.652;23.040;2022-08-02T03:03:17;92943.59;;;25.79
28305;BMP280;15569;42.652;23.040;2022-08-02T03:05:42;92942.19;;;25.82
28305;BMP280;15569;42.652;23.040;2022-08-02T03:08:08;92934.53;;;25.80
28305;BMP280;15569;42.652;23.040;2022-08-02T03:10:33;92933.88;;;25.80
28305;BMP280;15569;42.652;23.040;2022-08-02T03:12:59;92945.03;;;25.78
28305;BMP280;15569;42.652;23.040;2022-08-02T03:15:26;92930.47;;;25.71
28305;BMP280;15569;42.652;23.040;2022-08-02T03:17:52;92936.00;;;25.73
28305;BMP280;15569;42.652;23.040;2022-08-02T03:20:18;92938.06;;;25.77
28305;BMP280;15569;42.652;23.040;2022-08-02T03:22:45;92940.84;;;25.77
28305;BMP280;15569;42.652;23.040;2022-08-02T03:25:12;92932.56;;;25.71
28305;BMP280;15569;42.652;23.040;2022-08-02T03:27:38;92943.69;;;25.73
28305;BMP280;15569;42.652;23.040;2022-08-02T03:30:05;92943.59;;;25.79
28305;BMP280;15569;42.652;23.040;2022-08-02T03:32:32;92942.22;;;25.78
28305;BMP280;15569;42.652;23.040;2022-08-02T03:34:57;92944.31;;;25.79
28305;BMP280;15569;42.652;23.040;2022-08-02T03:37:23;92942.16;;;25.84
28305;BMP280;15569;42.652;23.040;2022-08-02T03:39:50;92950.56;;;25.80
28305;BMP280;15569;42.652;23.040;2022-08-02T03:42:17;92940.88;;;25.75
28305;BMP280;15569;42.652;23.040;2022-08-02T03:44:43;92945.06;;;25.74
28305;BMP280;15569;42.652;23.040;2022-08-02T03:47:09;92944.34;;;25.73
28305;BMP280;15569;42.652;23.040;2022-08-02T03:49:35;92951.31;;;25.74
28305;BMP280;15569;42.652;23.040;2022-08-02T03:52:01;92954.81;;;25.75
28305;BMP280;15569;42.652;23.040;2022-08-02T03:54:27;92953.47;;;25.68
28305;BMP280;15569;42.652;23.040;2022-08-02T03:56:52;92963.16;;;25.75
28305;BMP280;15569;42.652;23.040;2022-08-02T03:59:18;92951.97;;;25.77
28305;BMP280;15569;42.652;23.040;2022-08-02T04:01:43;92957.50;;;25.81
28305;BMP280;15569;42.652;23.040;2022-08-02T04:04:09;92953.22;;;25.90
28305;BMP280;15569;42.652;23.040;2022-08-02T04:06:34;92963.66;;;25.27
28305;BMP280;15569;42.652;23.040;2022-08-02T04:09:00;92958.56;;;25.47
28305;BMP280;15569;42.652;23.040;2022-08-02T04:11:25;92968.81;;;25.65
28305;BMP280;15569;42.652;23.040;2022-08-02T04:14:15;92958.22;;;25.79
28305;BMP280;15569;42.652;23.040;2022-08-02T04:16:41;92959.59;;;25.82
28305;BMP280;15569;42.652;23.040;2022-08-02T04:19:09;92966.44;;;25.92
28305;BMP280;15569;42.652;23.040;2022-08-02T04:21:38;92967.00;;;26.00
28305;BMP280;15569;42.652;23.040;2022-08-02T04:24:06;92971.16;;;26.05
28305;BMP280;15569;42.652;23.040;2022-08-02T04:26:34;92967.63;;;26.09
28305;BMP280;15569;42.652;23.040;2022-08-02T04:29:00;92973.81;;;26.13
28305;BMP280;15569;42.652;23.040;2022-08-02T04:31:27;92978.66;;;26.17
28305;BMP280;15569;42.652;23.040;2022-08-02T04:33:53;92971.59;;;26.24
28305;BMP280;15569;42.652;23.040;2022-08-02T04:36:18;92961.06;;;26.30
28305;BMP280;15569;42.652;23.040;2022-08-02T04:38:44;92975.63;;;26.37
28305;BMP280;15569;42.652;23.040;2022-08-02T04:41:09;92977.66;;;26.40
28305;BMP280;15569;42.652;23.040;2022-08-02T04:43:35;92980.38;;;26.46
28305;BMP280;15569;42.652;23.040;2022-08-02T04:46:01;92971.94;;;26.50
28305;BMP280;15569;42.652;23.040;2022-08-02T04:48:27;92978.13;;;26.57
28305;BMP280;15569;42.652;23.040;2022-08-02T04:50:53;92964.19;;;26.57
28305;BMP280;15569;42.652;23.040;2022-08-02T04:53:19;92965.44;;;26.66
28305;BMP280;15569;42.652;23.040;2022-08-02T04:55:45;92967.47;;;26.69
28305;BMP280;15569;42.652;23.040;2022-08-02T04:58:11;92972.66;;;25.96
28305;BMP280;15569;42.652;23.040;2022-08-02T05:00:36;92976.31;;;25.78
28305;BMP280;15569;42.652;23.040;2022-08-02T05:03:02;92976.84;;;25.95
28305;BMP280;15569;42.652;23.040;2022-08-02T05:05:27;92967.44;;;25.66
28305;BMP280;15569;42.652;23.040;2022-08-02T05:07:53;92980.94;;;26.02
28305;BMP280;15569;42.652;23.040;2022-08-02T05:10:18;92971.66;;;26.20
28305;BMP280;15569;42.652;23.040;2022-08-02T05:12:44;92985.44;;;26.30
28305;BMP280;15569;42.652;23.040;2022-08-02T05:15:11;92988.94;;;26.30
28305;BMP280;15569;42.652;23.040;2022-08-02T05:17:37;92991.31;;;24.50
28305;BMP280;15569;42.652;23.040;2022-08-02T05:20:04;92996.69;;;24.80
28305;BMP280;15569;42.652;23.040;2022-08-02T05:22:30;92992.28;;;23.86
28305;BMP280;15569;42.652;23.040;2022-08-02T05:24:55;92990.50;;;24.72
28305;BMP280;15569;42.652;23.040;2022-08-02T05:27:20;92987.38;;;25.18
28305;BMP280;15569;42.652;23.040;2022-08-02T05:29:46;92989.88;;;25.46
28305;BMP280;15569;42.652;23.040;2022-08-02T05:32:11;92991.66;;;25.77
28305;BMP280;15569;42.652;23.040;2022-08-02T05:34:37;92992.88;;;25.95
28305;BMP280;15569;42.652;23.040;2022-08-02T05:37:02;92985.72;;;25.45
28305;BMP280;15569;42.652;23.040;2022-08-02T05:39:27;92975.25;;;25.49
28305;BMP280;15569;42.652;23.040;2022-08-02T05:41:53;93006.91;;;23.69
28305;BMP280;15569;42.652;23.040;2022-08-02T05:44:18;92993.09;;;23.11
28305;BMP280;15569;42.652;23.040;2022-08-02T05:49:09;93013.09;;;23.93
28305;BMP280;15569;42.652;23.040;2022-08-02T05:51:42;92999.03;;;24.38
28305;BMP280;15569;42.652;23.040;2022-08-02T05:54:15;93006.88;;;23.91
28305;BMP280;15569;42.652;23.040;2022-08-02T06:02:02;93008.97;;;23.82
28305;BMP280;15569;42.652;23.040;2022-08-02T06:04:42;93024.25;;;23.81
28305;BMP280;15569;42.652;23.040;2022-08-02T06:07:10;93029.63;;;22.27
28305;BMP280;15569;42.652;23.040;2022-08-02T06:09:37;93028.81;;;22.02
28305;BMP280;15569;42.652;23.040;2022-08-02T06:12:04;93029.81;;;23.03
28305;BMP280;15569;42.652;23.040;2022-08-02T06:14:31;93027.72;;;23.76
28305;BMP280;15569;42.652;23.040;2022-08-02T06:16:59;93030.28;;;22.19
28305;BMP280;15569;42.652;23.040;2022-08-02T06:19:25;93034.69;;;23.23
28305;BMP280;15569;42.652;23.040;2022-08-02T06:21:51;93026.91;;;24.15
28305;BMP280;15569;42.652;23.040;2022-08-02T06:24:17;93032.31;;;24.56
28305;BMP280;15569;42.652;23.040;2022-08-02T06:26:43;93040.91;;;22.91
28305;BMP280;15569;42.652;23.040;2022-08-02T06:29:11;93039.44;;;22.54
28305;BMP280;15569;42.652;23.040;2022-08-02T06:31:39;93039.47;;;23.86
28305;BMP280;15569;42.652;23.040;2022-08-02T06:34:05;93035.25;;;24.13
28305;BMP280;15569;42.652;23.040;2022-08-02T06:36:41;93044.72;;;24.67
28305;BMP280;15569;42.652;23.040;2022-08-02T06:39:21;93044.94;;;24.22
28305;BMP280;15569;42.652;23.040;2022-08-02T06:41:49;93041.56;;;23.92
28305;BMP280;15569;42.652;23.040;2022-08-02T06:44:16;93038.88;;;23.44
28305;BMP280;15569;42.652;23.040;2022-08-02T06:46:41;93044.38;;;23.62
28305;BMP280;15569;42.652;23.040;2022-08-02T06:49:07;93029.78;;;23.91
28305;BMP280;15569;42.652;23.040;2022-08-02T06:51:33;93032.56;;;23.77
28305;BMP280;15569;42.652;23.040;2022-08-02T06:53:58;93031.91;;;23.09
28305;BMP280;15569;42.652;23.040;2022-08-02T06:56:24;93033.25;;;22.71
28305;BMP280;15569;42.652;23.040;2022-08-02T06:58:49;93031.88;;;23.81
28305;BMP280;15569;42.652;23.040;2022-08-02T07:01:17;93032.97;;;24.62
28305;BMP280;15569;42.652;23.040;2022-08-02T07:03:43;93035.44;;;25.04
28305;BMP280;15569;42.652;23.040;2022-08-02T07:06:08;93035.53;;;24.98
28305;BMP280;15569;42.652;23.040;2022-08-02T07:08:34;93031.38;;;25.74
28305;BMP280;15569;42.652;23.040;2022-08-02T07:11:06;93028.69;;;26.29
28305;BMP280;15569;42.652;23.040;2022-08-02T07:13:32;93025.97;;;26.21
28305;BMP280;15569;42.652;23.040;2022-08-02T07:15:57;93024.72;;;26.64
28305;BMP280;15569;42.652;23.040;2022-08-02T07:18:23;93024.81;;;26.56
28305;BMP280;15569;42.652;23.040;2022-08-02T07:20:49;93014.56;;;26.91
28305;BMP280;15569;42.652;23.040;2022-08-02T07:23:15;93024.94;;;27.39
28305;BMP280;15569;42.652;23.040;2022-08-02T07:25:40;93019.88;;;27.50
28305;BMP280;15569;42.652;23.040;2022-08-02T07:28:09;93021.63;;;27.70
28305;BMP280;15569;42.652;23.040;2022-08-02T07:30:34;93015.47;;;27.22
28305;BMP280;15569;42.652;23.040;2022-08-02T07:33:00;93016.09;;;27.65
28305;BMP280;15569;42.652;23.040;2022-08-02T07:35:26;93010.97;;;26.50
28305;BMP280;15569;42.652;23.040;2022-08-02T07:37:52;93012.56;;;26.35
28305;BMP280;15569;42.652;23.040;2022-08-02T07:40:18;92999.31;;;25.77
28305;BMP280;15569;42.652;23.040;2022-08-02T07:42:44;93012.28;;;24.27
28305;BMP280;15569;42.652;23.040;2022-08-02T07:45:10;93007.38;;;25.38
28305;BMP280;15569;42.652;23.040;2022-08-02T07:47:37;93017.13;;;24.30
28305;BMP280;15569;42.652;23.040;2022-08-02T07:50:04;93016.91;;;24.71
28305;BMP280;15569;42.652;23.040;2022-08-02T07:52:29;92992.66;;;25.50
28305;BMP280;15569;42.652;23.040;2022-08-02T07:54:55;92999.47;;;26.24
28305;BMP280;15569;42.652;23.040;2022-08-02T07:57:20;92997.72;;;26.51
28305;BMP280;15569;42.652;23.040;2022-08-02T07:59:46;92991.56;;;26.91
28305;BMP280;15569;42.652;23.040;2022-08-02T08:02:12;93000.72;;;27.28
28305;BMP280;15569;42.652;23.040;2022-08-02T08:04:39;93001.50;;;27.61
28305;BMP280;15569;42.652;23.040;2022-08-02T08:07:05;92990.84;;;27.72
28305;BMP280;15569;42.652;23.040;2022-08-02T08:09:34;92996.88;;;27.07
28305;BMP280;15569;42.652;23.040;2022-08-02T08:12:04;92996.19;;;27.84
28305;BMP280;15569;42.652;23.040;2022-08-02T08:14:29;93005.13;;;27.92
28305;BMP280;15569;42.652;23.040;2022-08-02T08:16:55;92997.81;;;28.09
28305;BMP280;15569;42.652;23.040;2022-08-02T08:19:20;93006.16;;;28.44
28305;BMP280;15569;42.652;23.040;2022-08-02T08:21:45;93006.66;;;28.20
28305;BMP280;15569;42.652;23.040;2022-08-02T08:24:11;93002.72;;;28.07
28305;BMP280;15569;42.652;23.040;2022-08-02T08:26:36;93012.34;;;28.48
28305;BMP280;15569;42.652;23.040;2022-08-02T08:29:04;93002.94;;;28.62
28305;BMP280;15569;42.652;23.040;2022-08-02T08:31:30;93001.28;;;28.75
28305;BMP280;15569;42.652;23.040;2022-08-02T08:33:56;93002.41;;;28.86
28305;BMP280;15569;42.652;23.040;2022-08-02T08:36:21;92995.75;;;28.99
28305;BMP280;15569;42.652;23.040;2022-08-02T08:38:47;92994.63;;;28.88
28305;BMP280;15569;42.652;23.040;2022-08-02T08:41:15;93000.44;;;28.80
28305;BMP280;15569;42.652;23.040;2022-08-02T08:43:41;92997.00;;;29.06
28305;BMP280;15569;42.652;23.040;2022-08-02T08:46:09;92988.84;;;29.25
28305;BMP280;15569;42.652;23.040;2022-08-02T08:48:39;93003.44;;;29.29
28305;BMP280;15569;42.652;23.040;2022-08-02T08:51:09;92991.91;;;29.41
28305;BMP280;15569;42.652;23.040;2022-08-02T08:53:38;93001.38;;;29.54
28305;BMP280;15569;42.652;23.040;2022-08-02T08:56:05;92999.66;;;29.65
28305;BMP280;15569;42.652;23.040;2022-08-02T08:58:30;92998.09;;;29.73
28305;BMP280;15569;42.652;23.040;2022-08-02T09:00:56;93001.59;;;29.73
28305;BMP280;15569;42.652;23.040;2022-08-02T09:03:21;93004.19;;;29.79
28305;BMP280;15569;42.652;23.040;2022-08-02T09:05:47;93003.34;;;29.85
28305;BMP280;15569;42.652;23.040;2022-08-02T09:08:12;93003.16;;;29.93
28305;BMP280;15569;42.652;23.040;2022-08-02T09:10:46;92997.31;;;30.01
28305;BMP280;15569;42.652;23.040;2022-08-02T09:15:42;92997.75;;;30.09
28305;BMP280;15569;42.652;23.040;2022-08-02T09:18:08;92997.28;;;30.25
28305;BMP280;15569;42.652;23.040;2022-08-02T09:20:35;92998.19;;;30.42
28305;BMP280;15569;42.652;23.040;2022-08-02T09:23:14;93001.56;;;29.46
28305;BMP280;15569;42.652;23.040;2022-08-02T09:25:40;92995.78;;;30.06
28305;BMP280;15569;42.652;23.040;2022-08-02T09:28:05;92990.53;;;30.16
28305;BMP280;15569;42.652;23.040;2022-08-02T09:30:32;92983.88;;;30.28
28305;BMP280;15569;42.652;23.040;2022-08-02T09:32:57;92977.81;;;29.17
28305;BMP280;15569;42.652;23.040;2022-08-02T09:35:34;92989.59;;;29.50
28305;BMP280;15569;42.652;23.040;2022-08-02T09:38:11;92968.75;;;29.94
28305;BMP280;15569;42.652;23.040;2022-08-02T09:40:38;92976.53;;;30.39
28305;BMP280;15569;42.652;23.040;2022-08-02T09:43:04;92979.50;;;30.57
28305;BMP280;15569;42.652;23.040;2022-08-02T09:45:31;92976.34;;;30.22
28305;BMP280;15569;42.652;23.040;2022-08-02T09:48:08;92973.72;;;30.16
28305;BMP280;15569;42.652;23.040;2022-08-02T09:50:39;92978.22;;;30.52
28305;BMP280;15569;42.652;23.040;2022-08-02T09:53:10;92967.28;;;30.44
28305;BMP280;15569;42.652;23.040;2022-08-02T09:55:37;92969.63;;;30.58
28305;BMP280;15569;42.652;23.040;2022-08-02T09:58:19;92980.69;;;30.85
28305;BMP280;15569;42.652;23.040;2022-08-02T10:00:55;92970.34;;;30.79
28305;BMP280;15569;42.652;23.040;2022-08-02T10:03:21;92971.06;;;30.57
28305;BMP280;15569;42.652;23.040;2022-08-02T10:05:52;92971.69;;;30.60
28305;BMP280;15569;42.652;23.040;2022-08-02T10:08:23;92968.44;;;30.29
28305;BMP280;15569;42.652;23.040;2022-08-02T10:10:49;92972.31;;;30.40
28305;BMP280;15569;42.652;23.040;2022-08-02T10:13:27;92969.38;;;30.89
28305;BMP280;15569;42.652;23.040;2022-08-02T10:15:54;92973.81;;;30.59
28305;BMP280;15569;42.652;23.040;2022-08-02T10:18:20;92982.84;;;31.05
28305;BMP280;15569;42.652;23.040;2022-08-02T10:20:47;92974.38;;;31.27
28305;BMP280;15569;42.652;23.040;2022-08-02T10:23:15;92961.69;;;31.08
28305;BMP280;15569;42.652;23.040;2022-08-02T10:25:41;92965.16;;;30.88
28305;BMP280;15569;42.652;23.040;2022-08-02T10:28:08;92964.78;;;31.20
28305;BMP280;15569;42.652;23.040;2022-08-02T10:30:37;92971.19;;;31.58
28305;BMP280;15569;42.652;23.040;2022-08-02T10:33:05;92970.13;;;31.49
28305;BMP280;15569;42.652;23.040;2022-08-02T10:35:32;92959.06;;;30.81
28305;BMP280;15569;42.652;23.040;2022-08-02T10:38:03;92966.41;;;30.93
28305;BMP280;15569;42.652;23.040;2022-08-02T10:49:14;92968.06;;;30.86
28305;BMP280;15569;42.652;23.040;2022-08-02T10:51:56;92973.97;;;30.98
28305;BMP280;15569;42.652;23.040;2022-08-02T10:54:24;92968.84;;;31.25
28305;BMP280;15569;42.652;23.040;2022-08-02T10:56:51;92967.50;;;31.43
28305;BMP280;15569;42.652;23.040;2022-08-02T10:59:34;92973.66;;;31.68
28305;BMP280;15569;42.652;23.040;2022-08-02T11:02:03;92963.50;;;31.95
28305;BMP280;15569;42.652;23.040;2022-08-02T11:09:35;92967.22;;;31.10
28305;BMP280;15569;42.652;23.040;2022-08-02T11:12:06;92958.06;;;30.91
28305;BMP280;15569;42.652;23.040;2022-08-02T11:14:34;92961.78;;;31.06
28305;BMP280;15569;42.652;23.040;2022-08-02T11:19:27;92956.47;;;31.37
28305;BMP280;15569;42.652;23.040;2022-08-02T11:22:04;92955.34;;;31.30
28305;BMP280;15569;42.652;23.040;2022-08-02T11:24:34;92956.63;;;31.72
28305;BMP280;15569;42.652;23.040;2022-08-02T11:27:04;92956.41;;;31.78
28305;BMP280;15569;42.652;23.040;2022-08-02T11:29:39;92965.06;;;31.33
28305;BMP280;15569;42.652;23.040;2022-08-02T11:32:18;92953.97;;;31.29
28305;BMP280;15569;42.652;23.040;2022-08-02T11:34:52;92962.59;;;32.19
28305;BMP280;15569;42.652;23.040;2022-08-02T11:37:31;92962.69;;;32.17
28305;BMP280;15569;42.652;23.040;2022-08-02T11:39:56;92954.38;;;31.76
28305;BMP280;15569;42.652;23.040;2022-08-02T11:42:30;92957.72;;;31.99
28305;BMP280;15569;42.652;23.040;2022-08-02T11:44:57;92960.44;;;31.64
28305;BMP280;15569;42.652;23.040;2022-08-02T11:47:22;92960.75;;;31.36
28305;BMP280;15569;42.652;23.040;2022-08-02T11:49:47;92971.56;;;31.87
28305;BMP280;15569;42.652;23.040;2022-08-02T11:52:13;92950.44;;;32.25
28305;BMP280;15569;42.652;23.040;2022-08-02T11:54:41;92966.16;;;32.72
28305;BMP280;15569;42.652;23.040;2022-08-02T11:59:37;92963.50;;;33.52
28305;BMP280;15569;42.652;23.040;2022-08-02T12:02:04;92954.84;;;33.23
28305;BMP280;15569;42.652;23.040;2022-08-02T12:04:29;92945.63;;;33.41
28305;BMP280;15569;42.652;23.040;2022-08-02T12:06:56;92954.91;;;32.72
28305;BMP280;15569;42.652;23.040;2022-08-02T12:09:22;92958.88;;;32.25
28305;BMP280;15569;42.652;23.040;2022-08-02T12:11:49;92955.63;;;32.18
28305;BMP280;15569;42.652;23.040;2022-08-02T12:14:15;92945.69;;;32.38
28305;BMP280;15569;42.652;23.040;2022-08-02T12:16:41;92961.25;;;32.00
28305;BMP280;15569;42.652;23.040;2022-08-02T12:19:25;92958.84;;;32.43
28305;BMP280;15569;42.652;23.040;2022-08-02T12:24:37;92961.66;;;31.69
28305;BMP280;15569;42.652;23.040;2022-08-02T12:27:03;92959.25;;;32.69
28305;BMP280;15569;42.652;23.040;2022-08-02T12:29:36;92951.66;;;32.65
28305;BMP280;15569;42.652;23.040;2022-08-02T12:32:03;92954.91;;;31.99
28305;BMP280;15569;42.652;23.040;2022-08-02T12:34:30;92964.41;;;32.97
28305;BMP280;15569;42.652;23.040;2022-08-02T12:37:06;92972.69;;;33.51
28305;BMP280;15569;42.652;23.040;2022-08-02T12:41:57;92969.22;;;33.01
28305;BMP280;15569;42.652;23.040;2022-08-02T12:44:23;92960.09;;;33.17
28305;BMP280;15569;42.652;23.040;2022-08-02T12:47:04;92956.97;;;33.56
28305;BMP280;15569;42.652;23.040;2022-08-02T12:49:30;92957.19;;;33.19
28305;BMP280;15569;42.652;23.040;2022-08-02T12:51:56;92955.63;;;33.55
28305;BMP280;15569;42.652;23.040;2022-08-02T12:54:24;92951.03;;;34.24
28305;BMP280;15569;42.652;23.040;2022-08-02T12:56:50;92943.19;;;34.26
28305;BMP280;15569;42.652;23.040;2022-08-02T12:59:32;92952.28;;;34.12
28305;BMP280;15569;42.652;23.040;2022-08-02T13:02:05;92926.25;;;34.41
28305;BMP280;15569;42.652;23.040;2022-08-02T13:04:31;92943.91;;;34.25
28305;BMP280;15569;42.652;23.040;2022-08-02T13:06:57;92940.13;;;34.16
28305;BMP280;15569;42.652;23.040;2022-08-02T13:09:23;92938.81;;;33.98
28305;BMP280;15569;42.652;23.040;2022-08-02T13:11:48;92946.81;;;32.97
28305;BMP280;15569;42.652;23.040;2022-08-02T13:14:14;92950.06;;;32.87
28305;BMP280;15569;42.652;23.040;2022-08-02T13:16:40;92947.84;;;32.89
28305;BMP280;15569;42.652;23.040;2022-08-02T13:19:06;92963.25;;;34.04
28305;BMP280;15569;42.652;23.040;2022-08-02T13:21:31;92959.44;;;34.55
28305;BMP280;15569;42.652;23.040;2022-08-02T13:23:57;92954.84;;;34.91
28305;BMP280;15569;42.652;23.040;2022-08-02T13:26:22;92952.63;;;35.20
28305;BMP280;15569;42.652;23.040;2022-08-02T13:28:48;92936.44;;;34.63
28305;BMP280;15569;42.652;23.040;2022-08-02T13:31:13;92940.19;;;33.85
28305;BMP280;15569;42.652;23.040;2022-08-02T13:33:39;92941.53;;;33.38
28305;BMP280;15569;42.652;23.040;2022-08-02T13:36:04;92938.66;;;33.07
28305;BMP280;15569;42.652;23.040;2022-08-02T13:38:29;92938.78;;;32.70
28305;BMP280;15569;42.652;23.040;2022-08-02T13:40:55;92920.94;;;32.24
28305;BMP280;15569;42.652;23.040;2022-08-02T13:43:33;92941.59;;;32.35
28305;BMP280;15569;42.652;23.040;2022-08-02T13:45:59;92949.31;;;32.18
28305;BMP280;15569;42.652;23.040;2022-08-02T13:48:24;92958.34;;;32.39
28305;BMP280;15569;42.652;23.040;2022-08-02T13:50:49;92947.50;;;32.81
28305;BMP280;15569;42.652;23.040;2022-08-02T13:53:15;92952.59;;;32.60
28305;BMP280;15569;42.652;23.040;2022-08-02T13:55:40;92955.72;;;33.03
28305;BMP280;15569;42.652;23.040;2022-08-02T13:58:05;92959.59;;;33.76
28305;BMP280;15569;42.652;23.040;2022-08-02T14:00:31;92950.06;;;32.87
28305;BMP280;15569;42.652;23.040;2022-08-02T14:02:56;92955.31;;;32.62
28305;BMP280;15569;42.652;23.040;2022-08-02T14:05:22;92955.16;;;32.66
28305;BMP280;15569;42.652;23.040;2022-08-02T14:07:57;92950.25;;;32.47
28305;BMP280;15569;42.652;23.040;2022-08-02T14:10:23;92944.16;;;32.41
28305;BMP280;15569;42.652;23.040;2022-08-02T14:12:51;92949.91;;;32.20
28305;BMP280;15569;42.652;23.040;2022-08-02T14:15:16;92956.88;;;32.21
28305;BMP280;15569;42.652;23.040;2022-08-02T14:17:42;92951.50;;;32.15
28305;BMP280;15569;42.652;23.040;2022-08-02T14:20:07;92960.41;;;33.09
28305;BMP280;15569;42.652;23.040;2022-08-02T14:22:33;92946.28;;;32.59
28305;BMP280;15569;42.652;23.040;2022-08-02T14:24:58;92952.72;;;31.83
28305;BMP280;15569;42.652;23.040;2022-08-02T14:27:24;92949.13;;;32.03
28305;BMP280;15569;42.652;23.040;2022-08-02T14:29:49;92952.34;;;32.12
28305;BMP280;15569;42.652;23.040;2022-08-02T14:32:16;92956.50;;;31.76
28305;BMP280;15569;42.652;23.040;2022-08-02T14:34:42;92957.81;;;31.79
28305;BMP280;15569;42.652;23.040;2022-08-02T14:37:09;92945.88;;;31.97
28305;BMP280;15569;42.652;23.040;2022-08-02T14:39:35;92949.38;;;31.79